createdAt,value
2023-01-23T00:02:26.544Z,99515.19
2023-01-23T00:05:12.315Z,99538.97
2023-01-23T00:07:58.162Z,99530.25
2023-01-23T00:10:43.562Z,99542.72
2023-01-23T00:13:28.966Z,99521.53
2023-01-23T00:16:17.136Z,99357.63
2023-01-23T00:19:02.995Z,99506.13
2023-01-23T00:21:48.615Z,99527.59
2023-01-23T00:24:34.087Z,99394.66
2023-01-23T00:27:19.901Z,99555.50
2023-01-23T00:30:06.629Z,99548.63
2023-01-23T00:32:51.849Z,99382.16
2023-01-23T00:35:37.331Z,99543.41
2023-01-23T00:38:22.711Z,99505.59
2023-01-23T00:41:08.291Z,99545.88
2023-01-23T00:43:53.660Z,99537.75
2023-01-23T00:46:39.413Z,99558.94
2023-01-23T00:49:25.244Z,99364.84
2023-01-23T00:52:11.054Z,99544.03
2023-01-23T00:54:56.301Z,99521.63
2023-01-23T00:57:41.923Z,99524.84
2023-01-23T01:00:27.472Z,99532.06
2023-01-23T01:03:13.445Z,99535.31
2023-01-23T01:06:00.832Z,99546.53
2023-01-23T01:08:48.116Z,99546.06
2023-01-23T01:11:35.376Z,99571.69
2023-01-23T01:14:20.947Z,99595.19
2023-01-23T01:17:07.204Z,99493.78
2023-01-23T01:19:53.496Z,99570.75
2023-01-23T01:22:39.609Z,99569.03
2023-01-23T01:25:25.298Z,99587.78
2023-01-23T01:28:13.411Z,99579.22
2023-01-23T01:31:04.945Z,99540.13
2023-01-23T01:33:50.634Z,99379.63
2023-01-23T01:36:37.511Z,99586.03
2023-01-23T01:39:22.896Z,99371.50
2023-01-23T01:42:08.258Z,99575.09
2023-01-23T01:44:59.733Z,99393.41
2023-01-23T01:47:45.445Z,99415.31
2023-01-23T01:50:30.998Z,99399.16
2023-01-23T01:53:16.544Z,99526.25
2023-01-23T01:56:03.062Z,99600.50
2023-01-23T01:58:53.629Z,99409.34
2023-01-23T02:01:41.967Z,99604.25
2023-01-23T02:04:27.443Z,99537.34
2023-01-23T02:07:32.227Z,99545.84
2023-01-23T02:10:18.043Z,99423.38
2023-01-23T02:13:22.092Z,99614.13
2023-01-23T02:16:15.734Z,99457.78
2023-01-23T02:19:07.239Z,99437.38
2023-01-23T02:22:00.135Z,99507.59
2023-01-23T02:25:12.113Z,99626.63
2023-01-23T02:27:58.016Z,99578.47
2023-01-23T02:30:47.176Z,99653.69
2023-01-23T02:33:32.782Z,99640.16
2023-01-23T02:36:21.621Z,99640.16
2023-01-23T02:39:16.428Z,99462.13
2023-01-23T02:42:05.891Z,99639.44
2023-01-23T02:45:05.575Z,99449.41
2023-01-23T02:47:51.919Z,99488.03
2023-01-23T02:50:37.219Z,99473.91
2023-01-23T02:53:22.858Z,99490.06
2023-01-23T02:56:10.748Z,99465.47
2023-01-23T02:59:14.635Z,99672.34
2023-01-23T03:02:00.391Z,99487.88
2023-01-23T03:04:45.884Z,99603.75
2023-01-23T03:07:31.101Z,99614.28
2023-01-23T03:10:16.440Z,99490.38
2023-01-23T03:13:07.411Z,99608.25
2023-01-23T03:15:57.459Z,99644.13
2023-01-23T03:18:53.509Z,99477.75
2023-01-23T03:21:40.934Z,99654.91
2023-01-23T03:24:26.527Z,99478.72
2023-01-23T03:27:12.572Z,99656.19
2023-01-23T03:30:13.465Z,99464.59
2023-01-23T03:32:58.904Z,99641.84
2023-01-23T03:35:44.393Z,99523.13
2023-01-23T03:38:30.220Z,99675.47
2023-01-23T03:41:24.977Z,99664.25
2023-01-23T03:44:12.187Z,99486.28
2023-01-23T03:46:58.402Z,99603.66
2023-01-23T03:49:43.979Z,99659.22
2023-01-23T03:52:29.902Z,99676.75
2023-01-23T03:55:16.422Z,99621.16
2023-01-23T03:58:03.740Z,99477.59
2023-01-23T04:00:51.899Z,99679.00
2023-01-23T04:03:37.712Z,99675.53
2023-01-23T04:06:23.367Z,99688.28
2023-01-23T04:09:08.828Z,99532.47
2023-01-23T04:11:55.167Z,99658.16
2023-01-23T04:14:41.266Z,99514.03
2023-01-23T04:17:27.012Z,99655.16
2023-01-23T04:20:13.581Z,99550.19
2023-01-23T04:23:00.710Z,99646.19
2023-01-23T04:25:48.093Z,99519.53
2023-01-23T04:28:34.017Z,99710.09
2023-01-23T04:31:19.610Z,99564.66
2023-01-23T04:34:05.904Z,99718.38
2023-01-23T04:36:51.180Z,99578.41
2023-01-23T04:39:37.353Z,99532.50
2023-01-23T04:42:23.170Z,99728.63
2023-01-23T04:45:25.134Z,99695.94
2023-01-23T04:48:29.514Z,99533.25
2023-01-23T04:51:15.486Z,99619.06
2023-01-23T04:54:01.162Z,99759.13
2023-01-23T04:56:48.450Z,99768.09
2023-01-23T04:59:36.196Z,99553.44
2023-01-23T05:02:21.508Z,99696.44
2023-01-23T05:05:08.253Z,99760.38
2023-01-23T05:07:54.463Z,99562.94
2023-01-23T05:10:40.550Z,99610.31
2023-01-23T05:13:29.020Z,99651.25
2023-01-23T05:16:15.026Z,99765.38
2023-01-23T05:19:35.918Z,99614.56
2023-01-23T05:22:23.861Z,99737.41
2023-01-23T05:25:09.370Z,99569.66
2023-01-23T05:27:55.945Z,99730.88
2023-01-23T05:30:42.802Z,99754.63
2023-01-23T05:33:43.989Z,99749.63
2023-01-23T05:36:29.716Z,99771.63
2023-01-23T05:39:15.100Z,99664.25
2023-01-23T05:42:01.605Z,99722.63
2023-01-23T05:45:08.436Z,99789.59
2023-01-23T05:48:00.122Z,99565.94
2023-01-23T05:50:46.038Z,99705.19
2023-01-23T05:53:31.540Z,99790.59
2023-01-23T05:56:16.874Z,99762.38
2023-01-23T05:59:28.143Z,99799.09
2023-01-23T06:02:26.926Z,99754.88
2023-01-23T06:05:41.183Z,99801.84
2023-01-23T06:08:34.627Z,99656.47
2023-01-23T06:11:21.452Z,99809.59
2023-01-23T06:14:07.553Z,99820.09
2023-01-23T06:16:53.198Z,99600.50
2023-01-23T06:19:40.707Z,99816.59
2023-01-23T06:22:27.111Z,99788.59
2023-01-23T06:25:26.097Z,99788.31
2023-01-23T06:28:13.925Z,99820.31
2023-01-23T06:31:04.329Z,99697.66
2023-01-23T06:34:02.400Z,99631.94
2023-01-23T06:36:54.716Z,99827.06
2023-01-23T06:39:41.123Z,99640.16
2023-01-23T06:42:27.069Z,99826.56
2023-01-23T06:45:12.617Z,99844.06
2023-01-23T06:47:58.300Z,99852.56
2023-01-23T06:50:45.734Z,99842.78
2023-01-23T06:53:32.647Z,99885.28
2023-01-23T06:56:19.119Z,99858.78
2023-01-23T06:59:06.829Z,99684.31
2023-01-23T07:01:52.765Z,99847.31
2023-01-23T07:04:43.567Z,99859.06
2023-01-23T07:07:30.595Z,99853.03
2023-01-23T07:10:16.868Z,99834.53
2023-01-23T07:13:04.772Z,99789.03
2023-01-23T07:15:50.252Z,99668.81
2023-01-23T07:18:36.037Z,99823.75
2023-01-23T07:21:25.325Z,99781.00
2023-01-23T07:24:10.801Z,99715.97
2023-01-23T07:26:56.327Z,99871.00
2023-01-23T07:29:42.391Z,99684.25
2023-01-23T07:32:28.151Z,99666.00
2023-01-23T07:35:13.694Z,99831.50
2023-01-23T07:37:59.766Z,99898.25
2023-01-23T07:40:45.673Z,99893.53
2023-01-23T07:43:31.438Z,99848.47
2023-01-23T07:46:17.030Z,99838.69
2023-01-23T07:49:02.693Z,99708.47
2023-01-23T07:51:48.150Z,99926.25
2023-01-23T07:54:33.499Z,99891.78
2023-01-23T07:57:19.100Z,99863.47
2023-01-23T08:00:05.689Z,99838.97
2023-01-23T08:02:58.453Z,99909.03
2023-01-23T08:05:49.323Z,99910.03
2023-01-23T08:08:35.016Z,99858.00
2023-01-23T08:11:20.513Z,99902.28
2023-01-23T08:14:06.549Z,99900.03
2023-01-23T08:16:53.332Z,99771.97
2023-01-23T08:19:38.783Z,99727.69
2023-01-23T08:22:24.297Z,99867.00
2023-01-23T08:25:10.871Z,99884.19
2023-01-23T08:27:57.258Z,99938.47
2023-01-23T08:30:43.933Z,99927.97
2023-01-23T08:33:29.886Z,99914.47
2023-01-23T08:36:15.884Z,99907.88
2023-01-23T08:39:01.408Z,99893.41
2023-01-23T08:41:47.183Z,99929.72
2023-01-23T08:44:34.286Z,99937.94
2023-01-23T08:47:19.973Z,99941.66
2023-01-23T08:50:06.959Z,99941.91
2023-01-23T08:52:53.561Z,99933.09
2023-01-23T08:55:39.921Z,99902.50
2023-01-23T08:58:25.591Z,99824.22
2023-01-23T09:01:13.862Z,99902.25
2023-01-23T09:03:59.816Z,99951.81
2023-01-23T09:06:45.912Z,99900.63
2023-01-23T09:09:31.285Z,99951.78
2023-01-23T09:12:16.689Z,99899.97
2023-01-23T09:15:02.364Z,99859.16
2023-01-23T09:17:48.403Z,99953.00
2023-01-23T09:20:34.206Z,99785.53
2023-01-23T09:23:20.502Z,99872.13
2023-01-23T09:26:09.155Z,99751.72
2023-01-23T09:28:54.824Z,99800.47
2023-01-23T09:31:40.854Z,99721.44
2023-01-23T09:34:26.716Z,99916.16
2023-01-23T09:37:12.479Z,99926.22
2023-01-23T09:39:58.723Z,99903.53
2023-01-23T09:42:44.548Z,99791.53
2023-01-23T09:45:31.675Z,99969.97
2023-01-23T09:48:23.083Z,99950.31
2023-01-23T09:51:30.942Z,99965.56
2023-01-23T09:54:31.604Z,99944.72
2023-01-23T09:57:23.893Z,99828.06
2023-01-23T10:00:23.759Z,99968.75
2023-01-23T10:03:15.748Z,99971.25
2023-01-23T10:06:19.361Z,99964.25
2023-01-23T10:09:35.690Z,99958.50
2023-01-23T10:12:47.359Z,99800.28
2023-01-23T10:15:56.484Z,99965.50
2023-01-23T10:18:54.560Z,99939.16
2023-01-23T10:22:01.614Z,99809.28
2023-01-23T10:24:52.149Z,99839.09
2023-01-23T10:27:44.396Z,99982.25
2023-01-23T10:30:35.379Z,99815.53
2023-01-23T10:33:25.833Z,99952.50
2023-01-23T10:36:24.099Z,99962.00
2023-01-23T10:39:26.485Z,99927.19
2023-01-23T10:42:13.253Z,99979.28
2023-01-23T10:44:59.036Z,99890.41
2023-01-23T10:47:54.588Z,99770.97
2023-01-23T10:50:40.666Z,99759.50
2023-01-23T10:53:27.080Z,99932.41
2023-01-23T10:56:17.112Z,99796.00
2023-01-23T10:59:05.470Z,99964.72
2023-01-23T11:01:57.875Z,99786.69
2023-01-23T11:04:46.698Z,99743.66
2023-01-23T11:07:37.812Z,99748.47
2023-01-23T11:10:23.895Z,99943.72
2023-01-23T11:13:25.512Z,99915.94
2023-01-23T11:16:15.940Z,99743.97
2023-01-23T11:19:15.601Z,99972.22
2023-01-23T11:22:03.961Z,99737.28
2023-01-23T11:24:49.598Z,99930.25
2023-01-23T11:27:35.167Z,99895.72
2023-01-23T11:30:58.355Z,99938.56
2023-01-23T11:34:03.485Z,99932.81
2023-01-23T11:36:59.972Z,99949.81
2023-01-23T11:39:51.142Z,99898.66
2023-01-23T11:42:40.851Z,99932.69
2023-01-23T11:45:44.978Z,99943.53
2023-01-23T11:49:05.358Z,99914.19
2023-01-23T11:51:59.866Z,99744.03
2023-01-23T11:55:03.160Z,99962.25
2023-01-23T11:58:17.406Z,99956.03
2023-01-23T12:01:49.293Z,99936.31
2023-01-23T12:05:05.808Z,99935.25
2023-01-23T12:08:06.701Z,99935.75
2023-01-23T12:11:16.513Z,99893.19
2023-01-23T12:14:13.971Z,99945.22
2023-01-23T12:17:13.274Z,99800.72
2023-01-23T12:20:11.216Z,99946.97
2023-01-23T12:23:06.280Z,99935.25
2023-01-23T12:26:05.177Z,99934.53
2023-01-23T12:29:24.927Z,99944.00
2023-01-23T12:32:13.613Z,99942.53
2023-01-23T12:35:14.596Z,99752.81
2023-01-23T12:38:40.335Z,99926.00
2023-01-23T12:41:34.528Z,99974.97
2023-01-23T12:44:30.642Z,99978.47
2023-01-23T12:47:57.179Z,99933.97
2023-01-23T12:50:47.846Z,99963.81
2023-01-23T12:53:38.295Z,99755.59
2023-01-23T12:56:33.792Z,99955.06
2023-01-23T12:59:24.294Z,99932.06
2023-01-23T13:02:30.492Z,99958.31
2023-01-23T13:05:35.496Z,99836.16
2023-01-23T13:08:37.813Z,99979.59
2023-01-23T13:12:01.469Z,99953.63
2023-01-23T13:15:10.178Z,99957.91
2023-01-23T13:17:57.798Z,99949.91
2023-01-23T13:21:16.940Z,99895.97
2023-01-23T13:24:49.879Z,99943.66
2023-01-23T13:27:40.795Z,99980.41
2023-01-23T13:30:35.279Z,99918.91
2023-01-23T13:33:30.315Z,99752.06
2023-01-23T13:36:25.328Z,99944.22
2023-01-23T13:39:16.908Z,99989.16
2023-01-23T13:42:14.665Z,99760.31
2023-01-23T13:45:27.623Z,99952.47
2023-01-23T14:20:40.315Z,99958.97
2023-01-23T14:23:29.886Z,99785.97
2023-01-23T14:26:18.460Z,99897.38
2023-01-23T14:29:18.736Z,99299.72
2023-01-23T14:32:04.647Z,99813.69
2023-01-23T14:34:50.948Z,99775.63
2023-01-23T14:37:37.171Z,99909.66
2023-01-23T14:40:28.344Z,99950.91
2023-01-23T14:43:20.865Z,99960.69
2023-01-23T14:46:20.205Z,99977.66
2023-01-23T14:49:09.110Z,99979.16
2023-01-23T14:51:58.279Z,99944.25
2023-01-23T14:54:53.385Z,99784.31
2023-01-23T14:57:39.455Z,99793.88
2023-01-23T15:00:26.376Z,99938.13
2023-01-23T15:03:13.071Z,100003.66
2023-01-23T15:05:59.532Z,99789.03
2023-01-23T15:08:45.706Z,99826.56
2023-01-23T15:11:31.653Z,99991.13
2023-01-23T15:14:31.696Z,99986.63
2023-01-23T15:17:20.499Z,99976.28
2023-01-23T15:20:06.694Z,99890.22
2023-01-23T15:22:51.956Z,100014.94
2023-01-23T15:25:37.950Z,99939.84
2023-01-23T15:28:31.598Z,99988.47
2023-01-23T15:31:26.339Z,100030.38
2023-01-23T15:34:15.387Z,99992.91
2023-01-23T15:37:10.965Z,99997.88
2023-01-23T15:40:01.858Z,99963.50
2023-01-23T15:43:08.371Z,99814.63
2023-01-23T15:45:54.056Z,99939.69
2023-01-23T15:48:39.486Z,99930.00
2023-01-23T15:51:24.938Z,99816.22
2023-01-23T15:54:31.160Z,100055.13
2023-01-23T15:57:16.536Z,100014.94
2023-01-23T16:00:02.600Z,99873.94
2023-01-23T16:02:59.396Z,100046.09
2023-01-23T16:05:44.984Z,99983.84
2023-01-23T16:08:30.448Z,100010.19
2023-01-23T16:11:16.203Z,100024.59
2023-01-23T16:14:02.216Z,100038.06
2023-01-23T16:16:47.999Z,100007.66
2023-01-23T16:19:33.351Z,100062.66
2023-01-23T16:22:25.217Z,99847.31
2023-01-23T16:25:44.049Z,100045.47
2023-01-23T16:28:32.613Z,99976.03
2023-01-23T16:31:18.291Z,100041.47
2023-01-23T16:34:04.276Z,99838.13
2023-01-23T16:36:52.572Z,99798.94
2023-01-23T16:39:39.932Z,100030.06
2023-01-23T16:42:28.359Z,100050.81
2023-01-23T16:45:16.094Z,99861.94
2023-01-23T16:48:01.761Z,99926.44
2023-01-23T16:50:51.492Z,99820.66
2023-01-23T16:53:49.185Z,99956.34
2023-01-23T16:56:38.082Z,100019.09
2023-01-23T16:59:31.147Z,99892.44
2023-01-23T17:02:29.626Z,99987.41
2023-01-23T17:05:17.048Z,99848.03
2023-01-23T17:08:17.617Z,100006.19
2023-01-23T17:11:05.001Z,100052.31
2023-01-23T17:13:59.080Z,99856.09
2023-01-23T17:16:45.644Z,100031.91
2023-01-23T17:19:35.053Z,100032.31
2023-01-23T17:22:27.360Z,100018.09
2023-01-23T17:25:19.133Z,100075.03
2023-01-23T17:28:12.856Z,99896.44
2023-01-23T17:31:02.259Z,99990.19
2023-01-23T17:33:48.429Z,100018.91
2023-01-23T17:36:35.091Z,100058.03
2023-01-23T17:39:21.437Z,100020.84
2023-01-23T17:42:12.017Z,100030.69
2023-01-23T17:44:57.736Z,100057.31
2023-01-23T17:47:45.356Z,99877.00
2023-01-23T17:50:31.056Z,100075.13
2023-01-23T17:53:19.270Z,100029.03
2023-01-23T17:56:05.436Z,99866.06
2023-01-23T17:58:51.245Z,99889.84
2023-01-23T18:01:36.696Z,99919.78
2023-01-23T18:04:22.887Z,100067.81
2023-01-23T18:07:11.277Z,100073.06
2023-01-23T18:09:58.373Z,100093.31
2023-01-23T18:12:51.709Z,100054.66
2023-01-23T18:15:41.910Z,100046.19
2023-01-23T18:18:33.318Z,100045.63
2023-01-23T18:21:20.595Z,100029.31
2023-01-23T18:24:06.781Z,99873.81
2023-01-23T18:27:23.468Z,100063.38
2023-01-23T18:30:47.018Z,100065.84
2023-01-23T18:34:02.050Z,100063.38
2023-01-23T18:37:02.393Z,99848.06
2023-01-23T18:40:10.426Z,100080.66
2023-01-23T18:43:33.956Z,100066.19
2023-01-23T18:46:21.528Z,100020.78
2023-01-23T18:49:08.706Z,99872.63
2023-01-23T18:52:18.251Z,100062.94
2023-01-23T18:55:16.115Z,100070.91
2023-01-23T18:58:31.472Z,99873.09
2023-01-23T19:01:32.372Z,99925.28
2023-01-23T19:04:18.575Z,99872.31
2023-01-23T19:07:10.275Z,100031.41
2023-01-23T19:09:56.166Z,99887.91
2023-01-23T19:12:54.505Z,100117.19
2023-01-23T19:15:44.605Z,100105.75
2023-01-23T19:19:01.792Z,100074.28
2023-01-23T19:21:53.221Z,100030.91
2023-01-23T19:24:39.267Z,100039.94
2023-01-23T19:27:25.162Z,100049.22
2023-01-23T19:30:12.482Z,100055.94
2023-01-23T19:32:58.163Z,99901.47
2023-01-23T19:35:44.641Z,99879.00
2023-01-23T19:38:30.640Z,100003.41
2023-01-23T19:41:21.771Z,100015.31
2023-01-23T19:44:12.246Z,99995.41
2023-01-23T19:46:57.902Z,99989.97
2023-01-23T19:49:44.378Z,100056.66
2023-01-23T19:52:29.997Z,100064.72
2023-01-23T19:55:27.951Z,99874.47
2023-01-23T19:58:13.337Z,100097.16
2023-01-23T20:00:58.770Z,100073.47
2023-01-23T20:03:44.101Z,99907.28
2023-01-23T20:06:29.676Z,99997.25
2023-01-23T20:09:15.174Z,100060.72
2023-01-23T20:12:00.806Z,99908.50
2023-01-23T20:14:46.336Z,100064.97
2023-01-23T20:17:31.911Z,99870.47
2023-01-23T20:20:18.160Z,99878.00
2023-01-23T20:23:03.624Z,99887.56
2023-01-23T20:25:56.855Z,100068.06
2023-01-23T20:28:42.584Z,100028.44
2023-01-23T20:31:28.174Z,100001.34
2023-01-23T20:34:15.885Z,100066.03
2023-01-23T20:37:01.321Z,100000.78
2023-01-23T20:39:46.653Z,100035.31
2023-01-23T20:42:33.312Z,100020.59
2023-01-23T20:45:19.536Z,100075.50
2023-01-23T20:48:06.420Z,99903.47
2023-01-23T20:50:56.914Z,100073.03
2023-01-23T20:53:44.043Z,100049.91
2023-01-23T20:56:29.781Z,100040.41
2023-01-23T20:59:23.948Z,99862.16
2023-01-23T21:02:27.130Z,99923.56
2023-01-23T21:05:12.451Z,100090.56
2023-01-23T21:07:57.826Z,99918.72
2023-01-23T21:10:44.374Z,100089.97
2023-01-23T21:13:30.544Z,100007.47
2023-01-23T21:16:16.240Z,99896.38
2023-01-23T21:19:01.997Z,100091.00
2023-01-23T21:21:47.687Z,100056.59
2023-01-23T21:24:36.111Z,99923.59
2023-01-23T21:27:24.469Z,100039.09
2023-01-23T21:30:11.289Z,100053.31
2023-01-23T21:32:56.883Z,100062.84
2023-01-23T21:35:47.162Z,100111.19
2023-01-23T21:38:32.644Z,100113.38
2023-01-23T21:41:19.054Z,99905.63
2023-01-23T21:44:04.478Z,100092.31
2023-01-23T21:46:50.075Z,99931.13
2023-01-23T21:49:35.567Z,100072.31
2023-01-23T21:52:21.487Z,100034.69
2023-01-23T21:55:07.251Z,100113.44
2023-01-23T21:57:52.997Z,99957.91
2023-01-23T22:00:57.043Z,100044.47
2023-01-23T22:03:42.509Z,99897.56
2023-01-23T22:06:27.790Z,100087.25
2023-01-23T22:09:18.356Z,99899.47
2023-01-23T22:12:03.892Z,100034.84
2023-01-23T22:14:49.253Z,99908.91
2023-01-23T22:17:34.694Z,100016.63
2023-01-23T22:20:20.644Z,100121.56
2023-01-23T22:23:05.976Z,100118.53
2023-01-23T22:25:54.945Z,100081.06
2023-01-23T22:28:40.626Z,99882.66
2023-01-23T22:31:26.339Z,100115.47
2023-01-23T22:34:12.166Z,100057.84
2023-01-23T22:36:57.655Z,100082.34
2023-01-23T22:39:44.143Z,100090.19
2023-01-23T22:42:29.443Z,100038.41
2023-01-23T22:45:14.776Z,100130.25
2023-01-23T22:48:00.198Z,100100.16
2023-01-23T22:50:45.734Z,99897.56
2023-01-23T22:53:32.137Z,99995.94
2023-01-23T22:56:17.749Z,100083.00
2023-01-23T22:59:03.819Z,100080.28
2023-01-23T23:01:49.545Z,99899.28
2023-01-23T23:04:35.220Z,99928.69
2023-01-23T23:07:20.612Z,99910.31
2023-01-23T23:10:08.864Z,99901.56
2023-01-23T23:12:54.677Z,99939.22
2023-01-23T23:15:40.447Z,100101.69
2023-01-23T23:18:25.689Z,100110.13
2023-01-23T23:21:13.478Z,99953.53
2023-01-23T23:24:00.408Z,100064.16
2023-01-23T23:26:45.821Z,100060.38
2023-01-23T23:29:31.212Z,100098.38
2023-01-23T23:32:16.791Z,99930.16
2023-01-23T23:35:02.177Z,100117.53
2023-01-23T23:37:47.745Z,99910.78
2023-01-23T23:40:33.068Z,99992.56
2023-01-23T23:43:18.515Z,99996.34
2023-01-23T23:46:06.879Z,99921.28
2023-01-23T23:48:52.537Z,100050.03
2023-01-23T23:51:37.909Z,99939.78
2023-01-23T23:54:23.316Z,100108.72
2023-01-23T23:57:08.657Z,99950.97
2023-01-23T23:59:54.238Z,100157.38
